createdAt,value
2016-12-06T00:00:59.221Z,20.16
2016-12-06T00:01:58.941Z,20.21
2016-12-06T00:02:59.270Z,20.16
2016-12-06T00:03:58.995Z,20.18
2016-12-06T00:04:59.324Z,20.16
2016-12-06T00:05:58.767Z,20.14
2016-12-06T00:06:59.077Z,20.14
2016-12-06T00:07:59.414Z,20.13
2016-12-06T00:08:59.445Z,20.13
2016-12-06T00:09:59.459Z,20.03
2016-12-06T00:10:58.875Z,20.03
2016-12-06T00:11:58.917Z,20.08
2016-12-06T00:12:58.941Z,20.1
2016-12-06T00:13:59.583Z,20.08
2016-12-06T00:14:59.298Z,20.02
2016-12-06T00:15:59.015Z,20.06
2016-12-06T00:16:59.652Z,20.03
2016-12-06T00:17:59.369Z,20.02
2016-12-06T00:18:59.709Z,20.05
2016-12-06T00:19:59.428Z,20.02
2016-12-06T00:20:59.471Z,20.06
2016-12-06T00:21:59.471Z,20.03
2016-12-06T00:22:59.816Z,20.03
2016-12-06T00:23:59.537Z,20.05
2016-12-06T00:24:59.869Z,19.96
2016-12-06T00:25:59.282Z,20.03
2016-12-06T00:26:59.302Z,19.99
2016-12-06T00:27:59.643Z,19.98
2016-12-06T00:28:59.668Z,20.05
2016-12-06T00:29:59.705Z,20.02
2016-12-06T00:30:59.721Z,20.02
2016-12-06T00:31:59.447Z,19.98
2016-12-06T00:32:59.779Z,19.95
2016-12-06T00:33:59.799Z,19.96
2016-12-06T00:34:59.824Z,19.96
2016-12-06T00:35:59.873Z,19.99
2016-12-06T00:37:00.187Z,20.02
2016-12-06T00:37:59.906Z,19.92
2016-12-06T00:38:59.935Z,19.96
2016-12-06T00:39:59.961Z,19.98
2016-12-06T00:41:00.023Z,19.98
2016-12-06T00:42:00.021Z,19.95
2016-12-06T00:42:59.737Z,19.91
2016-12-06T00:44:00.079Z,19.95
2016-12-06T00:45:00.404Z,19.94
2016-12-06T00:46:00.124Z,19.92
2016-12-06T00:46:59.851Z,19.88
2016-12-06T00:48:00.185Z,19.94
2016-12-06T00:48:59.907Z,19.84
2016-12-06T00:50:00.531Z,19.84
2016-12-06T00:51:00.256Z,19.92
2016-12-06T00:52:00.595Z,19.88
2016-12-06T00:53:00.314Z,19.88
2016-12-06T00:54:00.650Z,19.87
2016-12-06T00:55:00.671Z,19.84
2016-12-06T00:56:00.704Z,19.84
2016-12-06T00:57:00.412Z,19.8
2016-12-06T00:58:00.441Z,19.83
2016-12-06T00:59:00.166Z,19.87
2016-12-06T01:00:00.497Z,19.77
2016-12-06T01:01:00.536Z,19.84
2016-12-06T01:02:00.252Z,19.83
2016-12-06T01:03:00.585Z,19.77
2016-12-06T01:04:00.613Z,19.73
2016-12-06T01:05:00.634Z,19.76
2016-12-06T01:06:00.655Z,19.77
2016-12-06T01:07:00.388Z,19.68
2016-12-06T01:08:00.712Z,19.71
2016-12-06T01:09:00.749Z,19.69
2016-12-06T01:10:00.458Z,19.69
2016-12-06T01:11:00.798Z,19.71
2016-12-06T01:12:01.122Z,19.68
2016-12-06T01:13:01.151Z,19.73
2016-12-06T01:14:00.871Z,19.69
2016-12-06T01:15:00.909Z,19.65
2016-12-06T01:16:00.618Z,19.74
2016-12-06T01:17:00.650Z,19.66
2016-12-06T01:18:01.307Z,19.73
2016-12-06T01:19:01.308Z,19.62
2016-12-06T01:20:01.333Z,19.66
2016-12-06T01:21:01.357Z,19.61
2016-12-06T01:22:01.389Z,19.62
2016-12-06T01:23:01.123Z,19.63
2016-12-06T01:24:01.136Z,19.63
2016-12-06T01:25:00.868Z,19.68
2016-12-06T01:26:01.193Z,19.59
2016-12-06T01:27:01.525Z,19.61
2016-12-06T01:28:01.245Z,19.66
2016-12-06T01:29:01.286Z,19.51
2016-12-06T01:30:00.987Z,19.58
2016-12-06T01:31:01.640Z,19.54
2016-12-06T01:32:01.357Z,19.56
2016-12-06T01:33:01.074Z,19.5
2016-12-06T01:34:01.414Z,19.47
2016-12-06T01:35:01.127Z,19.56
2016-12-06T01:36:01.453Z,19.46
2016-12-06T01:37:01.477Z,19.48
2016-12-06T01:38:01.505Z,19.55
2016-12-06T01:39:01.838Z,19.48
2016-12-06T01:40:01.566Z,19.5
2016-12-06T01:41:01.284Z,19.5
2016-12-06T01:42:01.320Z,19.55
2016-12-06T01:43:01.636Z,19.51
2016-12-06T01:44:01.966Z,19.5
2016-12-06T01:45:01.694Z,19.48
2016-12-06T01:46:01.722Z,19.48
2016-12-06T01:47:02.056Z,19.46
2016-12-06T01:48:01.475Z,19.4
2016-12-06T01:49:01.801Z,19.46
2016-12-06T01:50:01.829Z,19.43
2016-12-06T01:51:02.140Z,19.46
2016-12-06T01:52:01.574Z,19.48
2016-12-06T01:53:01.895Z,19.46
2016-12-06T01:54:01.932Z,19.43
2016-12-06T01:55:02.265Z,19.44
2016-12-06T01:56:01.981Z,19.44
2016-12-06T01:57:02.003Z,19.44
2016-12-06T01:58:02.033Z,19.4
2016-12-06T01:59:02.068Z,19.46
2016-12-06T02:00:02.080Z,19.43
2016-12-06T02:01:02.429Z,19.43
2016-12-06T02:02:01.846Z,19.29
2016-12-06T02:03:02.170Z,19.37
2016-12-06T02:04:02.495Z,19.5
2016-12-06T02:05:02.229Z,19.39
2016-12-06T02:06:02.253Z,19.39
2016-12-06T02:07:02.275Z,19.5
2016-12-06T02:08:01.998Z,19.29
2016-12-06T02:09:02.325Z,19.36
2016-12-06T02:10:02.052Z,19.37
2016-12-06T02:11:02.392Z,19.44
2016-12-06T02:12:02.712Z,19.37
2016-12-06T02:13:02.426Z,19.32
2016-12-06T02:14:02.454Z,19.36
2016-12-06T02:15:02.489Z,19.33
2016-12-06T02:16:02.519Z,19.32
2016-12-06T02:17:02.234Z,19.32
2016-12-06T02:18:02.569Z,19.33
2016-12-06T02:19:02.602Z,19.33
2016-12-06T02:20:02.627Z,19.33
2016-12-06T02:21:02.651Z,19.29
2016-12-06T02:22:02.984Z,19.28
2016-12-06T02:23:02.705Z,19.36
2016-12-06T02:24:03.030Z,19.36
2016-12-06T02:25:02.751Z,19.32
2016-12-06T02:26:02.780Z,19.21
2016-12-06T02:27:02.504Z,19.25
2016-12-06T02:28:02.524Z,19.32
2016-12-06T02:29:02.557Z,19.29
2016-12-06T02:30:02.882Z,19.28
2016-12-06T02:31:02.607Z,19.23
2016-12-06T02:32:02.945Z,19.26
2016-12-06T02:33:03.264Z,19.23
2016-12-06T02:34:03.337Z,19.28
2016-12-06T02:35:02.710Z,19.16
2016-12-06T02:36:03.043Z,19.22
2016-12-06T02:37:03.076Z,19.19
2016-12-06T02:38:03.095Z,19.22
2016-12-06T02:39:03.430Z,19.22
2016-12-06T02:40:02.850Z,19.13
2016-12-06T02:41:03.474Z,19.33
2016-12-06T02:42:03.203Z,19.22
2016-12-06T02:43:03.528Z,19.19
2016-12-06T02:44:02.940Z,19.16
2016-12-06T02:45:03.277Z,19.13
2016-12-06T02:46:03.311Z,19.18
2016-12-06T02:47:03.635Z,19.14
2016-12-06T02:48:03.043Z,19.13
2016-12-06T02:49:03.079Z,19.19
2016-12-06T02:50:03.420Z,19.28
2016-12-06T02:51:03.439Z,19.16
2016-12-06T02:52:06.055Z,19.23
2016-12-06T02:53:03.510Z,19.14
2016-12-06T02:54:03.821Z,19.22
2016-12-06T02:55:03.544Z,19.16
2016-12-06T02:56:03.598Z,19.19
2016-12-06T02:57:03.594Z,19.23
2016-12-06T02:58:03.618Z,19.1
2016-12-06T02:59:03.956Z,19.1
2016-12-06T03:00:03.979Z,19.16
2016-12-06T03:01:04.005Z,19.18
2016-12-06T03:02:03.725Z,19.1
2016-12-06T03:03:04.054Z,19.11
2016-12-06T03:04:03.787Z,19.22
2016-12-06T03:05:03.811Z,19.08
2016-12-06T03:06:03.822Z,19.22
2016-12-06T03:07:04.170Z,19.08
2016-12-06T03:08:04.209Z,19.21
2016-12-06T03:10:58.758Z,19.08
2016-12-06T03:11:44.486Z,19.21
2016-12-06T03:12:44.197Z,19.14
2016-12-06T03:13:43.914Z,19.04
2016-12-06T03:14:44.254Z,19.16
2016-12-06T03:15:43.971Z,19.14
2016-12-06T03:16:43.997Z,19.18
2016-12-06T03:17:44.023Z,19.13
2016-12-06T03:18:44.348Z,19.1
2016-12-06T03:19:44.382Z,19.14
2016-12-06T03:20:44.404Z,19.11
2016-12-06T03:21:44.130Z,19.02
2016-12-06T03:22:44.767Z,19.08
2016-12-06T03:23:44.177Z,19.07
2016-12-06T03:24:44.509Z,19.14
2016-12-06T03:25:44.532Z,19.14
2016-12-06T03:26:44.566Z,19.08
2016-12-06T03:27:44.282Z,19
2016-12-06T03:28:44.309Z,19.1
2016-12-06T03:29:44.677Z,19.11
2016-12-06T03:30:44.673Z,19.08
2016-12-06T03:31:44.694Z,19.11
2016-12-06T03:32:44.411Z,19.06
2016-12-06T03:33:44.441Z,19.06
2016-12-06T03:34:44.772Z,19.11
2016-12-06T03:35:44.499Z,19.07
2016-12-06T03:36:44.518Z,19.04
2016-12-06T03:37:44.848Z,19.02
2016-12-06T03:38:44.871Z,19
2016-12-06T03:39:44.600Z,19.06
2016-12-06T03:40:45.232Z,19.06
2016-12-06T03:41:44.953Z,19.04
2016-12-06T03:42:44.986Z,18.99
2016-12-06T03:43:45.018Z,19.11
2016-12-06T03:44:45.340Z,18.99
2016-12-06T03:45:45.090Z,19
2016-12-06T03:46:45.080Z,19.04
2016-12-06T03:47:44.805Z,19.06
2016-12-06T03:48:44.846Z,18.91
2016-12-06T03:49:44.867Z,19.02
2016-12-06T03:50:45.496Z,19.02
2016-12-06T03:51:45.220Z,18.9
2016-12-06T03:52:44.937Z,18.9
2016-12-06T03:53:44.974Z,18.99
2016-12-06T03:54:44.990Z,19.02
2016-12-06T03:55:45.328Z,18.99
2016-12-06T03:56:45.348Z,19.02
2016-12-06T03:57:45.676Z,18.91
2016-12-06T03:58:45.709Z,19
2016-12-06T03:59:45.121Z,18.99
2016-12-06T04:00:45.158Z,19
2016-12-06T04:01:45.479Z,18.91
2016-12-06T04:02:45.499Z,18.95
2016-12-06T04:03:45.233Z,18.92
2016-12-06T04:04:45.257Z,18.92
2016-12-06T04:05:45.587Z,19
2016-12-06T04:06:45.619Z,18.9
2016-12-06T04:07:45.635Z,18.95
2016-12-06T04:08:45.348Z,18.91
2016-12-06T04:09:45.380Z,18.9
2016-12-06T04:10:45.721Z,18.92
2016-12-06T04:11:45.740Z,18.91
2016-12-06T04:12:45.495Z,18.9
2016-12-06T04:13:45.795Z,18.88
2016-12-06T04:14:45.820Z,18.91
2016-12-06T04:15:45.537Z,18.9
2016-12-06T04:16:45.878Z,18.91
2016-12-06T04:17:46.202Z,18.87
2016-12-06T04:18:45.627Z,18.9
2016-12-06T04:19:45.652Z,18.84
2016-12-06T04:20:46.280Z,18.87
2016-12-06T04:21:45.693Z,18.84
2016-12-06T04:22:45.724Z,18.88
2016-12-06T04:23:45.754Z,18.8
2016-12-06T04:24:46.091Z,18.9
2016-12-06T04:25:45.804Z,18.85
2016-12-06T04:26:46.129Z,18.85
2016-12-06T04:27:46.462Z,18.84
2016-12-06T04:28:46.194Z,18.75
2016-12-06T04:29:46.202Z,18.8
2016-12-06T04:30:46.535Z,18.8
2016-12-06T04:31:46.264Z,18.81
2016-12-06T04:32:46.593Z,18.85
2016-12-06T04:33:46.315Z,18.82
2016-12-06T04:34:46.342Z,18.81
2016-12-06T04:35:46.363Z,18.8
2016-12-06T04:36:46.708Z,18.87
2016-12-06T04:37:46.720Z,18.8
2016-12-06T04:38:46.448Z,18.88
2016-12-06T04:40:46.813Z,18.82
2016-12-06T04:41:46.219Z,18.82
2016-12-06T04:42:46.852Z,18.75
2016-12-06T04:43:46.876Z,18.84
2016-12-06T04:44:46.597Z,18.8
2016-12-06T04:45:46.930Z,18.8
2016-12-06T04:46:46.950Z,18.8
2016-12-06T04:47:46.687Z,18.8
2016-12-06T04:48:46.712Z,18.76
2016-12-06T04:49:47.033Z,18.8
2016-12-06T04:50:47.058Z,18.78
2016-12-06T04:51:46.486Z,18.81
2016-12-06T04:52:46.808Z,18.87
2016-12-06T04:53:46.532Z,18.76
2016-12-06T04:54:46.552Z,18.81
2016-12-06T04:55:46.889Z,18.78
2016-12-06T04:56:46.918Z,18.76
2016-12-06T04:57:46.636Z,18.85
2016-12-06T04:58:46.655Z,18.75
2016-12-06T04:59:47.283Z,18.72
2016-12-06T05:00:47.336Z,18.75
2016-12-06T05:01:47.353Z,18.75
2016-12-06T05:02:46.770Z,18.82
2016-12-06T05:03:47.099Z,18.75
2016-12-06T05:04:47.123Z,18.78
2016-12-06T05:05:47.460Z,18.66
2016-12-06T05:06:46.876Z,18.75
2016-12-06T05:07:47.197Z,18.72
2016-12-06T05:08:46.918Z,18.7
2016-12-06T05:09:47.254Z,18.72
2016-12-06T05:10:47.015Z,18.72
2016-12-06T05:11:47.292Z,18.8
2016-12-06T05:12:47.352Z,18.75
2016-12-06T05:13:47.053Z,18.73
2016-12-06T05:14:47.374Z,18.73
2016-12-06T05:15:47.107Z,18.72
2016-12-06T05:16:47.428Z,18.69
2016-12-06T05:17:47.772Z,18.72
2016-12-06T05:18:47.477Z,18.73
2016-12-06T05:19:47.201Z,18.7
2016-12-06T05:20:47.534Z,18.7
2016-12-06T05:21:47.559Z,18.7
2016-12-06T05:22:47.593Z,18.67
2016-12-06T05:23:47.921Z,18.69
2016-12-06T05:24:47.953Z,18.75
2016-12-06T05:25:47.665Z,18.7
2016-12-06T05:26:47.709Z,18.75
2016-12-06T05:27:47.413Z,18.72
2016-12-06T05:28:47.740Z,18.7
2016-12-06T05:29:47.777Z,18.72
2016-12-06T05:30:47.529Z,18.72
2016-12-06T05:31:47.832Z,18.76
2016-12-06T05:32:47.852Z,18.73
2016-12-06T05:33:48.175Z,18.81
2016-12-06T05:34:47.900Z,18.8
2016-12-06T05:35:47.929Z,18.81
2016-12-06T05:36:47.963Z,18.84
2016-12-06T05:37:47.983Z,18.76
2016-12-06T05:38:48.305Z,18.76
2016-12-06T05:39:48.028Z,18.78
2016-12-06T05:40:48.041Z,18.92
2016-12-06T05:41:48.077Z,18.88
2016-12-06T05:42:47.809Z,18.94
2016-12-06T05:43:48.143Z,18.95
2016-12-06T05:44:47.856Z,18.94
2016-12-06T05:45:48.195Z,18.92
2016-12-06T05:46:47.901Z,19.02
2016-12-06T05:47:47.929Z,18.92
2016-12-06T05:48:48.264Z,19.02
2016-12-06T05:49:47.983Z,18.99
2016-12-06T05:50:48.319Z,19.11
2016-12-06T05:51:48.040Z,19.08
2016-12-06T05:52:48.089Z,19.1
2016-12-06T05:53:48.082Z,19.07
2016-12-06T05:54:48.422Z,19.1
2016-12-06T05:55:48.759Z,19.1
2016-12-06T05:56:48.472Z,19.18
2016-12-06T05:57:48.196Z,19.26
2016-12-06T05:58:48.529Z,19.22
2016-12-06T05:59:48.554Z,19.18
2016-12-06T06:00:48.595Z,19.18
2016-12-06T06:01:48.336Z,19.18
2016-12-06T06:02:48.316Z,19.16
2016-12-06T06:03:48.684Z,19.14
2016-12-06T06:04:48.380Z,19.16
2016-12-06T06:05:48.398Z,19.22
2016-12-06T06:06:48.431Z,19.23
2016-12-06T06:07:49.072Z,19.26
2016-12-06T06:08:48.788Z,19.33
2016-12-06T06:09:48.809Z,19.25
2016-12-06T06:10:49.137Z,19.26
2016-12-06T06:11:48.854Z,19.26
2016-12-06T06:12:48.887Z,19.26
2016-12-06T06:13:48.607Z,19.33
2016-12-06T06:14:49.244Z,19.39
2016-12-06T06:15:48.977Z,19.28
2016-12-06T06:16:48.994Z,19.29
2016-12-06T06:17:48.707Z,19.37
2016-12-06T06:18:49.350Z,19.32
2016-12-06T06:19:49.075Z,19.36
2016-12-06T06:20:49.135Z,19.37
2016-12-06T06:21:49.129Z,19.32
2016-12-06T06:22:49.150Z,19.37
2016-12-06T06:23:49.178Z,19.46
2016-12-06T06:24:49.197Z,19.4
2016-12-06T06:25:49.259Z,19.37
2016-12-06T06:26:49.564Z,19.44
2016-12-06T06:27:48.969Z,19.44
2016-12-06T06:28:49.613Z,19.41
2016-12-06T06:29:49.635Z,19.43
2016-12-06T06:30:49.354Z,19.41
2016-12-06T06:31:49.456Z,19.46
2016-12-06T06:32:49.103Z,19.46
2016-12-06T06:33:49.430Z,19.46
2016-12-06T06:34:49.456Z,19.43
2016-12-06T06:35:49.786Z,19.46
2016-12-06T06:36:49.215Z,19.48
2016-12-06T06:37:49.240Z,19.44
2016-12-06T06:38:49.565Z,19.51
2016-12-06T06:39:49.617Z,19.43
2016-12-06T06:40:49.622Z,19.47
2016-12-06T06:41:49.949Z,19.51
2016-12-06T06:42:49.971Z,19.56
2016-12-06T06:43:49.404Z,19.46
2016-12-06T06:44:49.723Z,19.54
2016-12-06T06:45:49.446Z,19.51
2016-12-06T06:46:49.478Z,19.51
2016-12-06T06:47:49.803Z,19.47
2016-12-06T06:48:49.824Z,19.54
2016-12-06T06:49:49.540Z,19.51
2016-12-06T06:50:49.920Z,19.47
2016-12-06T06:51:49.905Z,19.48
2016-12-06T06:52:49.625Z,19.51
2016-12-06T06:53:49.967Z,19.5
2016-12-06T06:54:50.295Z,19.48
2016-12-06T06:55:50.004Z,19.58
2016-12-06T06:56:50.349Z,19.51
2016-12-06T06:57:50.062Z,19.5
2016-12-06T06:58:50.390Z,19.5
2016-12-06T06:59:50.116Z,19.5
2016-12-06T07:00:50.140Z,19.55
2016-12-06T07:01:50.168Z,19.43
2016-12-06T07:02:50.196Z,19.51
2016-12-06T07:03:50.522Z,19.51
2016-12-06T07:04:50.553Z,19.51
2016-12-06T07:05:49.972Z,19.5
2016-12-06T07:06:50.015Z,19.48
2016-12-06T07:07:50.032Z,19.56
2016-12-06T07:08:50.351Z,19.62
2016-12-06T07:09:50.703Z,19.47
2016-12-06T07:10:50.100Z,19.46
2016-12-06T07:11:50.129Z,19.58
2016-12-06T07:12:50.452Z,19.61
2016-12-06T07:13:50.178Z,19.5
2016-12-06T07:14:50.506Z,19.62
2016-12-06T07:15:50.842Z,19.63
2016-12-06T07:16:50.268Z,19.58
2016-12-06T07:17:50.895Z,19.61
2016-12-06T07:18:50.616Z,19.63
2016-12-06T07:19:50.645Z,19.61
2016-12-06T07:20:50.670Z,19.62
2016-12-06T07:21:50.694Z,19.62
2016-12-06T07:22:51.036Z,19.61
2016-12-06T07:23:50.748Z,19.69
2016-12-06T07:24:51.077Z,19.65
2016-12-06T07:25:50.497Z,19.61
2016-12-06T07:26:50.830Z,19.66
2016-12-06T07:27:50.562Z,19.63
2016-12-06T07:28:50.567Z,19.73
2016-12-06T07:29:50.600Z,19.68
2016-12-06T07:30:50.937Z,19.68
2016-12-06T07:31:50.965Z,19.77
2016-12-06T07:32:50.986Z,19.71
2016-12-06T07:33:51.015Z,19.71
2016-12-06T07:34:51.034Z,19.73
2016-12-06T07:35:51.067Z,19.62
2016-12-06T07:36:51.089Z,19.68
2016-12-06T07:37:50.810Z,19.71
2016-12-06T07:38:51.143Z,19.65
2016-12-06T07:39:51.172Z,19.77
2016-12-06T07:40:51.204Z,19.68
2016-12-06T07:41:51.236Z,19.73
2016-12-06T07:42:51.549Z,19.76
2016-12-06T07:43:51.572Z,19.65
2016-12-06T07:44:50.990Z,19.65
2016-12-06T07:45:51.331Z,19.73
2016-12-06T07:46:51.662Z,19.62
2016-12-06T07:47:51.379Z,19.59
2016-12-06T07:48:51.411Z,19.66
2016-12-06T07:49:51.731Z,19.63
2016-12-06T07:50:51.757Z,19.62
2016-12-06T07:51:51.187Z,19.59
2016-12-06T07:52:51.512Z,19.61
2016-12-06T07:53:51.536Z,19.59
2016-12-06T07:54:51.574Z,19.61
2016-12-06T07:55:51.898Z,19.61
2016-12-06T07:56:51.622Z,19.65
2016-12-06T07:57:51.639Z,19.62
2016-12-06T07:58:51.662Z,19.61
2016-12-06T07:59:51.392Z,19.56
2016-12-06T08:00:51.420Z,19.54
2016-12-06T08:01:51.755Z,19.48
2016-12-06T08:02:51.783Z,19.54
2016-12-06T08:03:51.508Z,19.48
2016-12-06T08:04:52.133Z,19.51
2016-12-06T08:05:51.853Z,19.55
2016-12-06T08:06:51.879Z,19.5
2016-12-06T08:07:51.607Z,19.54
2016-12-06T08:08:51.960Z,19.51
2016-12-06T08:09:52.264Z,19.48
2016-12-06T08:10:51.985Z,19.47
2016-12-06T08:11:52.013Z,19.51
2016-12-06T08:12:51.732Z,19.54
2016-12-06T08:13:52.067Z,19.55
2016-12-06T08:14:52.095Z,19.48
2016-12-06T08:15:51.808Z,19.55
2016-12-06T08:16:52.143Z,19.5
2016-12-06T08:17:51.866Z,19.48
2016-12-06T08:18:52.190Z,19.58
2016-12-06T08:19:51.910Z,19.5
2016-12-06T08:20:52.247Z,19.47
2016-12-06T08:21:52.260Z,19.47
2016-12-06T08:22:52.309Z,19.44
2016-12-06T08:23:52.634Z,19.47
2016-12-06T08:24:52.356Z,19.54
2016-12-06T08:25:52.384Z,19.46
2016-12-06T08:26:52.711Z,19.5
2016-12-06T08:27:52.433Z,19.37
2016-12-06T08:28:52.765Z,19.5
2016-12-06T08:29:52.491Z,19.46
2016-12-06T08:30:52.519Z,19.46
2016-12-06T08:31:52.540Z,19.43
2016-12-06T08:32:52.273Z,19.44
2016-12-06T08:33:52.283Z,19.4
2016-12-06T08:34:52.909Z,19.47
2016-12-06T08:35:52.342Z,19.47
2016-12-06T08:36:52.667Z,19.44
2016-12-06T08:37:52.392Z,19.43
2016-12-06T08:38:53.038Z,19.46
2016-12-06T08:39:52.455Z,19.43
2016-12-06T08:40:52.802Z,19.47
2016-12-06T08:41:52.802Z,19.46
2016-12-06T08:42:52.828Z,19.41
2016-12-06T08:43:52.860Z,19.37
2016-12-06T08:44:53.188Z,19.44
2016-12-06T08:45:52.909Z,19.39
2016-12-06T08:46:52.936Z,19.46
2016-12-06T08:47:52.657Z,19.41
2016-12-06T08:48:52.987Z,19.4
2016-12-06T08:49:52.707Z,19.32
2016-12-06T08:50:52.733Z,19.46
2016-12-06T08:51:53.069Z,19.41
2016-12-06T08:52:53.095Z,19.36
2016-12-06T08:53:52.823Z,19.44
2016-12-06T08:54:53.464Z,19.37
2016-12-06T08:55:53.168Z,19.43
2016-12-06T08:56:52.892Z,19.43
2016-12-06T08:57:53.550Z,19.36
2016-12-06T08:58:53.251Z,19.37
2016-12-06T08:59:53.591Z,19.4
2016-12-06T09:00:53.304Z,19.4
2016-12-06T09:01:53.328Z,19.31
2016-12-06T09:02:53.657Z,19.37
2016-12-06T09:03:53.090Z,19.4
2016-12-06T09:04:53.710Z,19.31
2016-12-06T09:05:53.439Z,19.26
2016-12-06T09:06:53.767Z,19.33
2016-12-06T09:07:53.493Z,19.28
2016-12-06T09:08:53.521Z,19.39
2016-12-06T09:09:53.538Z,19.31
2016-12-06T09:10:53.271Z,19.33
2016-12-06T09:11:53.891Z,19.26
2016-12-06T09:12:53.308Z,19.31
2016-12-06T09:13:53.649Z,19.31
2016-12-06T09:14:53.398Z,19.22
2016-12-06T09:15:53.414Z,19.31
2016-12-06T09:16:53.725Z,19.28
2016-12-06T09:17:53.447Z,19.32
2016-12-06T09:18:54.087Z,19.33
2016-12-06T09:19:53.810Z,19.25
2016-12-06T09:20:53.531Z,19.26
2016-12-06T09:21:54.158Z,19.32
2016-12-06T09:22:54.195Z,19.32
2016-12-06T09:23:53.910Z,19.25
2016-12-06T09:24:54.234Z,19.26
2016-12-06T09:25:54.269Z,19.26
2016-12-06T09:26:53.994Z,19.25
2016-12-06T09:27:54.014Z,19.36
2016-12-06T09:28:53.743Z,19.26
2016-12-06T09:29:54.064Z,19.32
2016-12-06T09:30:54.403Z,19.26
2016-12-06T09:31:53.846Z,19.32
2016-12-06T09:32:54.150Z,19.29
2016-12-06T09:33:54.479Z,19.16
2016-12-06T09:34:53.899Z,19.31
2016-12-06T09:35:53.926Z,19.29
2016-12-06T09:36:53.940Z,19.19
2016-12-06T09:37:54.281Z,19.26
2016-12-06T09:38:54.306Z,19.29
2016-12-06T09:39:54.040Z,19.26
2016-12-06T09:40:54.655Z,19.23
2016-12-06T09:41:54.388Z,19.31
2016-12-06T09:42:54.733Z,19.26
2016-12-06T09:43:54.133Z,19.26
2016-12-06T09:44:54.154Z,19.28
2016-12-06T09:45:54.787Z,19.19
2016-12-06T09:46:54.512Z,19.25
2016-12-06T09:47:54.552Z,19.28
2016-12-06T09:48:54.577Z,19.29
2016-12-06T09:49:54.598Z,19.29
2016-12-06T09:50:54.319Z,19.31
2016-12-06T09:51:54.644Z,19.29
2016-12-06T09:52:54.664Z,19.18
2016-12-06T09:53:54.693Z,19.28
2016-12-06T09:54:55.023Z,19.23
2016-12-06T09:55:54.742Z,19.19
2016-12-06T09:56:55.083Z,19.22
2016-12-06T09:57:54.508Z,19.19
2016-12-06T09:58:54.828Z,19.23
2016-12-06T09:59:54.860Z,19.16
2016-12-06T10:00:55.182Z,19.26
2016-12-06T10:01:54.615Z,19.21
2016-12-06T10:02:55.239Z,19.25
2016-12-06T10:03:55.264Z,19.14
2016-12-06T10:04:55.306Z,19.18
2016-12-06T10:05:55.012Z,19.19
2016-12-06T10:06:55.039Z,19.22
2016-12-06T10:07:55.371Z,19.18
2016-12-06T10:08:54.810Z,19.21
2016-12-06T10:09:55.419Z,19.22
2016-12-06T10:10:55.457Z,19.22
2016-12-06T10:11:55.480Z,19.29
2016-12-06T10:12:55.195Z,19.22
2016-12-06T10:13:55.220Z,19.32
2016-12-06T10:14:54.952Z,19.33
2016-12-06T10:15:55.324Z,19.19
2016-12-06T10:16:54.997Z,19.21
2016-12-06T10:17:55.333Z,19.22
2016-12-06T10:18:55.660Z,19.26
2016-12-06T10:19:55.691Z,19.14
2016-12-06T10:20:55.100Z,19.19
2016-12-06T10:21:55.436Z,19.32
2016-12-06T10:22:55.465Z,19.23
2016-12-06T10:23:55.190Z,19.25
2016-12-06T10:24:55.515Z,19.32
2016-12-06T10:25:55.540Z,19.22
2016-12-06T10:26:55.872Z,19.21
2016-12-06T10:27:55.584Z,19.23
2016-12-06T10:28:55.333Z,19.31
2016-12-06T10:29:55.653Z,19.28
2016-12-06T10:30:55.979Z,19.28
2016-12-06T10:31:55.695Z,19.32
2016-12-06T10:32:55.729Z,19.21
2016-12-06T10:33:55.780Z,19.32
2016-12-06T10:34:55.786Z,19.32
2016-12-06T10:35:55.491Z,19.33
2016-12-06T10:36:55.543Z,19.37
2016-12-06T10:37:56.163Z,19.32
2016-12-06T10:38:55.581Z,19.4
2016-12-06T10:39:56.214Z,19.46
2016-12-06T10:40:55.934Z,19.41
2016-12-06T10:41:56.258Z,19.47
2016-12-06T10:42:55.983Z,19.41
2016-12-06T10:43:56.319Z,19.47
2016-12-06T10:44:56.052Z,19.47
2016-12-06T10:45:56.074Z,19.55
2016-12-06T10:46:56.398Z,19.43
2016-12-06T10:47:56.415Z,19.48
2016-12-06T10:48:56.451Z,19.55
2016-12-06T10:49:56.172Z,19.61
2016-12-06T10:50:56.508Z,19.62
2016-12-06T10:51:56.229Z,19.68
2016-12-06T10:52:56.267Z,19.69
2016-12-06T10:53:56.283Z,19.69
2016-12-06T10:54:56.000Z,19.68
2016-12-06T10:55:56.636Z,19.76
2016-12-06T10:56:56.672Z,19.68
2016-12-06T10:57:56.382Z,19.77
2016-12-06T10:58:56.106Z,19.81
2016-12-06T10:59:56.491Z,19.83
2016-12-06T11:00:56.472Z,19.87
2016-12-06T11:01:56.497Z,19.86
2016-12-06T11:02:56.530Z,19.87
2016-12-06T11:03:56.544Z,19.86
2016-12-06T11:04:56.271Z,19.95
2016-12-06T11:05:56.299Z,19.95
2016-12-06T11:06:56.633Z,19.96
2016-12-06T11:07:56.653Z,19.96
2016-12-06T11:08:56.697Z,19.96
2016-12-06T11:09:56.702Z,19.92
2016-12-06T11:10:56.735Z,19.95
2016-12-06T11:11:56.756Z,19.98
2016-12-06T11:12:57.105Z,19.92
2016-12-06T11:13:56.814Z,20.05
2016-12-06T11:14:57.150Z,20.05
2016-12-06T11:15:56.567Z,20.01
2016-12-06T11:16:57.193Z,20.02
2016-12-06T11:17:56.929Z,20.05
2016-12-06T11:18:56.940Z,20.02
2016-12-06T11:19:56.973Z,20.03
2016-12-06T11:20:57.299Z,20.03
2016-12-06T11:21:57.319Z,20.14
2016-12-06T11:22:57.369Z,20.14
2016-12-06T11:23:56.781Z,20.2
2016-12-06T11:24:57.101Z,20.13
2016-12-06T11:25:57.134Z,20.14
2016-12-06T11:26:57.159Z,20.16
2016-12-06T11:27:56.883Z,19.87
2016-12-06T11:28:57.220Z,19.63
2016-12-06T11:29:57.241Z,19.51
2016-12-06T11:30:57.276Z,19.25
2016-12-06T11:31:57.604Z,19.21
2016-12-06T11:32:57.634Z,19.26
2016-12-06T11:33:57.643Z,19.28
2016-12-06T11:34:57.376Z,19.4
2016-12-06T11:35:57.401Z,19.5
2016-12-06T11:36:57.423Z,19.5
2016-12-06T11:37:57.149Z,19.46
2016-12-06T11:38:57.475Z,19.61
2016-12-06T11:39:57.200Z,19.66
2016-12-06T11:40:57.824Z,19.68
2016-12-06T11:41:57.557Z,19.77
2016-12-06T11:42:57.894Z,19.81
2016-12-06T11:43:57.622Z,19.86
2016-12-06T11:44:57.933Z,19.92
2016-12-06T11:45:57.356Z,19.87
2016-12-06T11:46:57.388Z,19.95
2016-12-06T11:47:57.725Z,19.98
2016-12-06T11:48:57.738Z,20.03
2016-12-06T11:49:57.774Z,20.03
2016-12-06T11:50:57.799Z,20.06
2016-12-06T11:51:58.128Z,20.13
2016-12-06T11:52:57.549Z,20.05
2016-12-06T11:53:57.570Z,20.16
2016-12-06T11:54:57.597Z,20.18
2016-12-06T11:55:57.927Z,20.17
2016-12-06T11:56:57.955Z,20.16
2016-12-06T11:57:58.296Z,20.24
2016-12-06T11:58:58.305Z,20.28
2016-12-06T11:59:58.347Z,20.21
2016-12-06T12:00:58.052Z,20.29
2016-12-06T12:01:58.091Z,20.28
2016-12-06T12:02:57.819Z,20.39
2016-12-06T12:03:58.452Z,20.38
2016-12-06T12:04:58.481Z,20.41
2016-12-06T12:05:58.502Z,20.35
2016-12-06T12:06:58.527Z,20.36
2016-12-06T12:07:57.952Z,20.41
2016-12-06T12:08:58.272Z,20.52
2016-12-06T12:09:58.301Z,20.52
2016-12-06T12:10:58.641Z,20.43
2016-12-06T12:11:58.061Z,20.51
2016-12-06T12:12:58.703Z,20.51
2016-12-06T12:13:58.424Z,20.58
2016-12-06T12:14:58.742Z,20.41
2016-12-06T12:15:58.470Z,20.51
2016-12-06T12:16:58.186Z,20.5
2016-12-06T12:17:58.218Z,20.43
2016-12-06T12:18:58.549Z,20.47
2016-12-06T12:19:58.280Z,20.47
2016-12-06T12:20:58.634Z,20.42
2016-12-06T12:21:58.933Z,20.52
2016-12-06T12:22:58.348Z,20.52
2016-12-06T12:23:58.695Z,20.48
2016-12-06T12:24:59.007Z,20.5
2016-12-06T12:25:59.032Z,20.5
2016-12-06T12:26:58.767Z,20.48
2016-12-06T12:27:59.090Z,20.39
2016-12-06T12:28:58.819Z,20.39
2016-12-06T12:29:58.843Z,20.43
2016-12-06T12:30:58.567Z,20.41
2016-12-06T12:31:58.596Z,20.39
2016-12-06T12:32:58.617Z,20.38
2016-12-06T12:33:58.954Z,20.36
2016-12-06T12:34:59.285Z,20.39
2016-12-06T12:35:59.004Z,20.39
2016-12-06T12:36:59.329Z,20.31
2016-12-06T12:37:58.752Z,20.33
2016-12-06T12:38:59.090Z,20.36
2016-12-06T12:39:59.414Z,20.39
2016-12-06T12:40:58.835Z,20.32
2016-12-06T12:41:59.172Z,20.33
2016-12-06T12:42:59.187Z,20.29
2016-12-06T12:43:58.922Z,20.33
2016-12-06T12:44:58.942Z,20.24
2016-12-06T12:45:58.970Z,20.24
2016-12-06T12:46:59.630Z,20.24
2016-12-06T12:47:59.633Z,20.28
2016-12-06T12:48:59.361Z,20.28
2016-12-06T12:49:59.087Z,20.24
2016-12-06T12:50:59.402Z,20.23
2016-12-06T12:51:59.431Z,20.24
2016-12-06T12:52:59.467Z,20.29
2016-12-06T12:53:59.184Z,20.14
2016-12-06T12:54:59.224Z,20.18
2016-12-06T12:55:59.546Z,20.16
2016-12-06T12:56:59.271Z,20.21
2016-12-06T12:57:59.599Z,20.18
2016-12-06T12:58:59.923Z,20.17